Time,TemperatureF,DewpointF,PressureIn,WindDirection,WindDirectionDegrees,WindSpeedMPH,WindSpeedGustMPH,Humidity,HourlyPrecipIn,Conditions,Clouds,dailyrainin,SolarRadiationWatts/m^2,SoftwareType,DateUTC
2013-10-05 00:00:00,66.8,65.0,30.00,ENE,77,1.0,1.0,94,0.00,CLR,,0.12,0.0,WeatherDisplay:10.37,2013-10-05 04:00:00,
2013-10-05 00:01:00,66.8,65.0,30.00,ENE,77,1.2,1.2,94,0.00,RA,,0.00,0.0,WeatherDisplay:10.37,2013-10-05 04:01:00,
2013-10-05 00:02:00,66.8,65.0,30.00,ENE,77,1.2,1.2,94,0.00,RA,,0.00,0.0,WeatherDisplay:10.37,2013-10-05 04:02:00,
2013-10-05 00:07:00,66.8,65.0,29.99,ENE,77,0.0,0.0,94,0.00,RA,,0.00,0.0,WeatherDisplay:10.37,2013-10-05 04:07:00,
2013-10-05 00:12:00,66.7,64.9,29.99,ENE,77,0.0,0.0,94,0.00,CLR,,0.00,0.0,WeatherDisplay:10.37,2013-10-05 04:12:00,
2013-10-05 00:17:00,66.6,64.8,29.99,ENE,77,0.0,0.0,94,0.00,CLR,,0.00,0.0,WeatherDisplay:10.37,2013-10-05 04:17:00,
2013-10-05 00:22:00,66.6,64.8,29.99,ENE,77,0.0,0.1,94,0.00,CLR,,0.00,0.0,WeatherDisplay:10.37,2013-10-05 04:22:00,
2013-10-05 00:27:00,66.6,64.8,29.99,ENE,77,0.0,0.0,94,0.00,CLR,,0.00,0.0,WeatherDisplay:10.37,2013-10-05 04:27:00,
2013-10-05 00:32:00,66.6,65.1,29.99,ENE,77,0.0,0.0,95,0.00,CLR,,0.00,0.0,WeatherDisplay:10.37,2013-10-05 04:32:00,
2013-10-05 00:37:00,66.6,65.1,29.99,ENE,77,0.0,0.0,95,0.00,CLR,,0.00,0.0,WeatherDisplay:10.37,2013-10-05 04:37:00,
2013-10-05 00:42:00,66.7,65.2,29.99,ENE,77,0.0,0.0,95,0.00,CLR,,0.00,0.0,WeatherDisplay:10.37,2013-10-05 04:42:00,
2013-10-05 00:47:00,66.7,65.2,29.99,ENE,77,0.0,0.1,95,0.00,CLR,,0.00,0.0,WeatherDisplay:10.37,2013-10-05 04:47:00,
2013-10-05 00:52:00,66.7,65.2,30.00,ENE,77,1.2,0.0,95,0.00,CLR,,0.00,0.0,WeatherDisplay:10.37,2013-10-05 04:52:00,
2013-10-05 00:57:00,66.7,65.2,30.00,ENE,77,0.0,0.0,95,0.00,CLR,,0.00,0.0,WeatherDisplay:10.37,2013-10-05 04:57:00,
2013-10-05 01:02:00,66.6,64.8,29.99,ENE,77,0.0,0.0,94,0.00,CLR,,0.00,0.0,WeatherDisplay:10.37,2013-10-05 05:02:00,
2013-10-05 01:07:00,66.6,64.8,29.99,ENE,77,1.2,0.0,94,0.00,CLR,,0.00,0.0,WeatherDisplay:10.37,2013-10-05 05:07:00,
2013-10-05 01:12:00,66.6,64.8,29.99,ENE,77,2.3,2.3,94,0.00,CLR,,0.00,0.0,WeatherDisplay:10.37,2013-10-05 05:12:00,
2013-10-05 01:17:00,66.6,64.8,29.99,ENE,65,3.5,3.5,94,0.00,CLR,,0.00,0.0,WeatherDisplay:10.37,2013-10-05 05:17:00,
2013-10-05 01:22:00,66.6,64.8,29.99,ENE,59,3.5,3.5,94,0.00,CLR,,0.00,0.0,WeatherDisplay:10.37,2013-10-05 05:22:00,
2013-10-05 01:27:00,66.5,64.7,29.99,NE,55,4.6,4.6,94,0.00,CLR,,0.00,0.0,WeatherDisplay:10.37,2013-10-05 05:27:00,
2013-10-05 01:32:00,66.4,64.6,29.99,NE,43,3.5,3.5,94,0.00,CLR,,0.00,0.0,WeatherDisplay:10.37,2013-10-05 05:32:00,
2013-10-05 01:37:00,66.4,64.9,29.99,NE,52,2.3,2.3,95,0.00,CLR,,0.00,0.0,WeatherDisplay:10.37,2013-10-05 05:37:00,
2013-10-05 01:42:00,66.3,64.8,29.99,ENE,57,3.5,3.5,95,0.00,CLR,,0.00,0.0,WeatherDisplay:10.37,2013-10-05 05:42:00,
2013-10-05 01:47:00,66.2,64.7,29.99,East,87,5.0,5.0,95,0.00,CLR,,0.00,0.0,WeatherDisplay:10.37,2013-10-05 05:47:00,
2013-10-05 01:52:00,66.1,64.6,30.00,East,86,2.3,0.0,95,0.00,CLR,,0.00,0.0,WeatherDisplay:10.37,2013-10-05 05:52:00,
2013-10-05 01:57:00,66.1,64.6,30.00,East,86,1.2,1.2,95,0.00,CLR,,0.00,0.0,WeatherDisplay:10.37,2013-10-05 05:57:00,
2013-10-05 02:02:00,66.0,64.5,30.00,ENE,77,3.5,3.5,95,0.00,CLR,,0.00,0.0,WeatherDisplay:10.37,2013-10-05 06:02:00,
2013-10-05 02:07:00,66.0,64.5,30.00,East,80,2.0,2.0,95,0.00,CLR,,0.00,0.0,WeatherDisplay:10.37,2013-10-05 06:07:00,
2013-10-05 02:12:00,66.0,64.5,30.00,East,80,1.2,1.2,95,0.00,CLR,,0.00,0.0,WeatherDisplay:10.37,2013-10-05 06:12:00,
2013-10-05 02:17:00,65.9,64.4,30.00,East,80,1.2,1.2,95,0.00,CLR,,0.00,0.0,WeatherDisplay:10.37,2013-10-05 06:17:00,
2013-10-05 02:22:00,65.9,64.4,29.99,East,88,5.0,5.0,95,0.00,CLR,,0.00,0.0,WeatherDisplay:10.37,2013-10-05 06:22:00,
2013-10-05 02:27:00,65.8,64.3,30.00,East,87,3.5,3.5,95,0.00,CLR,,0.00,0.0,WeatherDisplay:10.37,2013-10-05 06:27:00,
2013-10-05 02:32:00,65.8,64.3,30.00,East,87,2.0,2.0,95,0.00,CLR,,0.00,0.0,WeatherDisplay:10.37,2013-10-05 06:32:00,
2013-10-05 02:37:00,65.7,64.2,29.99,East,87,3.5,3.5,95,0.00,CLR,,0.00,0.0,WeatherDisplay:10.37,2013-10-05 06:37:00,
2013-10-05 02:42:00,65.7,64.2,29.99,East,95,1.2,1.2,95,0.00,CLR,,0.00,0.0,WeatherDisplay:10.37,2013-10-05 06:42:00,
2013-10-05 02:47:00,65.6,64.1,29.99,East,95,2.3,2.3,95,0.00,CLR,,0.00,0.0,WeatherDisplay:10.37,2013-10-05 06:47:00,
2013-10-05 02:52:00,65.5,64.0,29.99,East,93,3.5,3.5,95,0.00,CLR,,0.00,0.0,WeatherDisplay:10.37,2013-10-05 06:52:00,
2013-10-05 02:57:00,65.5,64.0,29.99,East,93,1.2,1.2,95,0.00,CLR,,0.00,0.0,WeatherDisplay:10.37,2013-10-05 06:57:00,
2013-10-05 03:02:00,65.5,64.0,29.99,East,93,1.2,1.2,95,0.00,CLR,,0.00,0.0,WeatherDisplay:10.37,2013-10-05 07:02:00,
2013-10-05 03:07:00,65.4,63.9,29.99,East,93,0.0,0.0,95,0.00,CLR,,0.00,0.0,WeatherDisplay:10.37,2013-10-05 07:07:00,
2013-10-05 03:12:00,65.4,64.2,29.98,East,93,0.0,0.0,96,0.00,CLR,,0.00,0.0,WeatherDisplay:10.37,2013-10-05 07:12:00,
2013-10-05 03:17:00,65.4,64.2,29.98,East,93,0.0,0.0,96,0.00,CLR,,0.00,0.0,WeatherDisplay:10.37,2013-10-05 07:17:00,
2013-10-05 03:22:00,65.4,64.2,29.98,East,93,0.0,0.0,96,0.00,CLR,,0.00,0.0,WeatherDisplay:10.37,2013-10-05 07:22:00,
2013-10-05 03:27:00,65.4,64.2,29.98,East,93,1.2,1.2,96,0.00,CLR,,0.00,0.0,WeatherDisplay:10.37,2013-10-05 07:27:00,
2013-10-05 03:32:00,65.4,64.2,29.98,East,93,0.0,0.0,96,0.00,CLR,,0.00,0.0,WeatherDisplay:10.37,2013-10-05 07:32:00,
2013-10-05 03:37:00,65.4,64.2,29.98,East,93,0.0,0.0,96,0.00,CLR,,0.00,0.0,WeatherDisplay:10.37,2013-10-05 07:37:00,
2013-10-05 03:42:00,65.4,64.2,29.98,East,93,1.2,0.0,96,0.00,CLR,,0.00,0.0,WeatherDisplay:10.37,2013-10-05 07:42:00,
2013-10-05 03:47:00,65.4,64.2,29.98,East,93,0.0,0.0,96,0.00,CLR,,0.00,0.0,WeatherDisplay:10.37,2013-10-05 07:47:00,
2013-10-05 03:52:00,65.4,64.2,29.98,East,93,0.0,0.0,96,0.00,CLR,,0.00,0.0,WeatherDisplay:10.37,2013-10-05 07:52:00,
2013-10-05 03:57:00,65.5,64.3,29.97,East,93,0.0,0.0,96,0.00,CLR,,0.00,0.0,WeatherDisplay:10.37,2013-10-05 07:57:00,
2013-10-05 04:02:00,65.5,64.6,29.98,East,93,0.0,0.0,97,0.00,CLR,,0.00,0.0,WeatherDisplay:10.37,2013-10-05 08:02:00,
2013-10-05 04:07:00,65.5,64.6,29.98,East,93,0.0,0.0,97,0.00,CLR,,0.00,0.0,WeatherDisplay:10.37,2013-10-05 08:07:00,
2013-10-05 04:12:00,65.5,64.6,29.98,East,93,0.0,0.0,97,0.00,CLR,,0.00,0.0,WeatherDisplay:10.37,2013-10-05 08:12:00,
2013-10-05 04:17:00,65.6,64.7,29.98,East,93,0.0,0.0,97,0.00,CLR,,0.00,0.0,WeatherDisplay:10.37,2013-10-05 08:17:00,
2013-10-05 04:22:00,65.6,64.7,29.98,East,93,0.0,0.0,97,0.00,CLR,,0.00,0.0,WeatherDisplay:10.37,2013-10-05 08:22:00,
2013-10-05 04:27:00,65.6,64.7,29.98,East,93,0.0,0.0,97,0.00,CLR,,0.01,0.0,WeatherDisplay:10.37,2013-10-05 08:27:00,
2013-10-05 04:32:00,65.6,64.7,29.98,East,93,0.0,0.0,97,0.01,RA,,0.01,0.0,WeatherDisplay:10.37,2013-10-05 08:32:00,
2013-10-05 04:37:00,65.6,64.7,29.98,East,93,0.0,0.0,97,0.01,RA,,0.01,0.0,WeatherDisplay:10.37,2013-10-05 08:37:00,
2013-10-05 04:42:00,65.7,64.8,29.99,East,93,1.2,1.2,97,0.01,CLR,,0.01,0.0,WeatherDisplay:10.37,2013-10-05 08:42:00,
2013-10-05 04:47:00,65.7,64.8,30.00,East,93,1.2,0.0,97,0.01,CLR,,0.01,0.0,WeatherDisplay:10.37,2013-10-05 08:47:00,
2013-10-05 04:52:00,65.7,64.8,29.99,East,93,2.3,2.3,97,0.02,RA,,0.02,0.0,WeatherDisplay:10.37,2013-10-05 08:52:00,
2013-10-05 04:57:00,65.7,64.8,29.99,ENE,60,2.3,2.3,97,0.02,RA,,0.02,0.0,WeatherDisplay:10.37,2013-10-05 08:57:00,
2013-10-05 05:02:00,65.7,64.8,29.99,North,9,3.5,3.5,97,0.03,RA,,0.03,0.0,WeatherDisplay:10.37,2013-10-05 09:02:00,
2013-10-05 05:07:00,65.6,64.7,29.99,NNE,22,3.0,3.0,97,0.04,RA,,0.05,0.0,WeatherDisplay:10.37,2013-10-05 09:07:00,
2013-10-05 05:12:00,65.6,64.7,29.99,NNE,22,0.0,0.0,97,0.05,RA,,0.05,0.0,WeatherDisplay:10.37,2013-10-05 09:12:00,
2013-10-05 05:17:00,65.6,64.7,29.99,NNE,22,0.0,0.0,97,0.06,RA,,0.06,0.0,WeatherDisplay:10.37,2013-10-05 09:17:00,
2013-10-05 05:22:00,65.5,64.6,30.00,NNE,22,0.0,0.0,97,0.07,RA,,0.07,0.0,WeatherDisplay:10.37,2013-10-05 09:22:00,
2013-10-05 05:27:00,65.4,64.5,29.99,NNE,22,0.0,0.0,97,0.08,RA,,0.08,0.0,WeatherDisplay:10.37,2013-10-05 09:27:00,
2013-10-05 05:32:00,65.4,64.5,29.99,NNE,22,0.0,0.0,97,0.09,RA,,0.11,0.0,WeatherDisplay:10.37,2013-10-05 09:32:00,
2013-10-05 05:37:00,65.3,64.4,29.99,NNE,22,1.2,1.2,97,0.11,RA,,0.12,0.0,WeatherDisplay:10.37,2013-10-05 09:37:00,
2013-10-05 05:42:00,65.2,64.3,29.99,NNE,22,3.0,3.0,97,0.12,RA,,0.13,0.0,WeatherDisplay:10.37,2013-10-05 09:42:00,
2013-10-05 05:47:00,65.2,64.3,30.00,NNE,22,1.2,0.0,97,0.14,RA,,0.15,0.0,WeatherDisplay:10.37,2013-10-05 09:47:00,
2013-10-05 05:52:00,65.1,64.2,30.00,NNE,22,1.2,1.2,97,0.14,RA,,0.16,0.0,WeatherDisplay:10.37,2013-10-05 09:52:00,
2013-10-05 05:57:00,65.0,64.1,30.00,NNE,22,0.0,0.0,97,0.15,RA,,0.17,0.0,WeatherDisplay:10.37,2013-10-05 09:57:00,
2013-10-05 06:02:00,65.0,64.1,30.00,NNE,22,0.0,0.0,97,0.14,RA,,0.17,0.0,WeatherDisplay:10.37,2013-10-05 10:02:00,
2013-10-05 06:07:00,65.0,64.1,30.00,NNE,22,0.0,0.0,97,0.15,RA,,0.19,0.0,WeatherDisplay:10.37,2013-10-05 10:07:00,
2013-10-05 06:12:00,65.0,64.1,30.01,NNE,22,0.0,0.0,97,0.15,RA,,0.20,0.0,WeatherDisplay:10.37,2013-10-05 10:12:00,
2013-10-05 06:17:00,64.9,64.0,30.01,NNE,22,0.0,0.0,97,0.15,RA,,0.21,0.0,WeatherDisplay:10.37,2013-10-05 10:17:00,
2013-10-05 06:22:00,64.9,64.0,30.00,NNE,22,0.0,0.0,97,0.16,RA,,0.23,0.0,WeatherDisplay:10.37,2013-10-05 10:22:00,
2013-10-05 06:27:00,64.9,64.0,30.00,NNE,22,1.2,0.0,97,0.16,RA,,0.24,0.0,WeatherDisplay:10.37,2013-10-05 10:27:00,
2013-10-05 06:32:00,64.8,63.9,30.00,NNE,26,3.0,3.0,97,0.15,RA,,0.25,0.0,WeatherDisplay:10.37,2013-10-05 10:32:00,
2013-10-05 06:37:00,64.9,64.0,30.00,SSE,165,1.2,1.2,97,0.15,RA,,0.27,0.0,WeatherDisplay:10.37,2013-10-05 10:37:00,
2013-10-05 06:42:00,64.9,64.0,30.00,SSE,165,3.5,3.5,97,0.16,RA,,0.29,0.0,WeatherDisplay:10.37,2013-10-05 10:42:00,
2013-10-05 06:47:00,64.9,64.0,30.00,SSE,165,0.0,0.0,97,0.15,RA,,0.30,0.0,WeatherDisplay:10.37,2013-10-05 10:47:00,
2013-10-05 06:52:00,64.9,64.0,30.00,SSE,165,0.0,0.0,97,0.15,RA,,0.31,0.0,WeatherDisplay:10.37,2013-10-05 10:52:00,
2013-10-05 06:57:00,64.9,64.0,30.00,SSE,165,1.2,1.2,97,0.15,RA,,0.32,0.0,WeatherDisplay:10.37,2013-10-05 10:57:00,
2013-10-05 07:02:00,64.9,64.0,29.99,SSE,165,0.0,0.0,97,0.15,RA,,0.32,0.0,WeatherDisplay:10.37,2013-10-05 11:02:00,
2013-10-05 07:07:00,64.9,64.0,29.99,SSE,165,0.0,0.0,97,0.14,RA,,0.33,0.0,WeatherDisplay:10.37,2013-10-05 11:07:00,
2013-10-05 07:12:00,64.9,64.3,30.00,SSE,165,0.0,0.0,98,0.13,RA,,0.33,0.0,WeatherDisplay:10.37,2013-10-05 11:12:00,
2013-10-05 07:17:00,65.0,64.4,30.00,SSE,165,0.0,0.0,98,0.13,RA,,0.34,0.0,WeatherDisplay:10.37,2013-10-05 11:17:00,
2013-10-05 07:22:00,65.0,64.4,30.00,SSE,165,0.0,0.0,98,0.11,RA,,0.34,0.0,WeatherDisplay:10.37,2013-10-05 11:22:00,
2013-10-05 07:27:00,65.0,64.4,30.00,SSE,165,2.3,2.3,98,0.10,CLR,,0.34,0.0,WeatherDisplay:10.37,2013-10-05 11:27:00,
2013-10-05 07:32:00,65.0,64.4,30.00,SSE,165,0.0,0.0,98,0.10,RA,,0.35,0.0,WeatherDisplay:10.37,2013-10-05 11:32:00,
2013-10-05 07:37:00,65.0,64.4,30.00,SSE,165,0.0,0.0,98,0.08,RA,,0.35,0.0,WeatherDisplay:10.37,2013-10-05 11:37:00,
2013-10-05 07:42:00,65.0,64.4,30.00,SSE,165,0.0,0.0,98,0.06,CLR,,0.35,0.0,WeatherDisplay:10.37,2013-10-05 11:42:00,
2013-10-05 07:47:00,65.0,64.4,30.00,SSE,165,0.0,0.0,98,0.06,RA,,0.36,0.0,WeatherDisplay:10.37,2013-10-05 11:47:00,
2013-10-05 07:52:00,65.0,64.4,30.00,SSE,165,0.0,0.0,98,0.05,RA,,0.36,0.0,WeatherDisplay:10.37,2013-10-05 11:52:00,
2013-10-05 07:57:00,65.0,64.4,30.00,SSE,165,0.0,0.0,98,0.04,CLR,,0.36,0.0,WeatherDisplay:10.37,2013-10-05 11:57:00,
2013-10-05 08:02:00,64.9,64.3,29.99,SSE,165,0.0,0.0,98,0.04,CLR,,0.36,0.0,WeatherDisplay:10.37,2013-10-05 12:02:00,
2013-10-05 08:08:00,64.8,64.2,29.99,SSE,165,1.2,1.2,98,0.03,CLR,,0.36,7.0,WeatherDisplay:10.37,2013-10-05 12:08:00,
2013-10-05 08:13:00,64.9,64.3,29.99,SSE,165,0.0,0.0,98,0.03,CLR,,0.36,11.0,WeatherDisplay:10.37,2013-10-05 12:13:00,
2013-10-05 08:18:00,65.0,64.4,29.99,SSE,165,3.5,3.5,98,0.02,CLR,,0.36,12.0,WeatherDisplay:10.37,2013-10-05 12:18:00,
2013-10-05 08:23:00,65.1,64.5,29.99,NNW,346,3.5,3.5,98,0.02,CLR,,0.36,16.0,WeatherDisplay:10.37,2013-10-05 12:23:00,
2013-10-05 08:28:00,65.1,64.5,29.99,NNW,346,0.0,0.0,98,0.02,CLR,,0.36,19.0,WeatherDisplay:10.37,2013-10-05 12:28:00,
2013-10-05 08:33:00,65.2,64.6,29.99,NNW,346,2.0,2.0,98,0.01,CLR,,0.36,16.0,WeatherDisplay:10.37,2013-10-05 12:33:00,
2013-10-05 08:38:00,65.2,64.6,29.99,NNW,346,1.2,0.0,98,0.01,CLR,,0.36,16.0,WeatherDisplay:10.37,2013-10-05 12:38:00,
2013-10-05 08:43:00,65.2,64.6,29.99,NNW,346,0.0,0.0,98,0.01,CLR,,0.37,14.0,WeatherDisplay:10.37,2013-10-05 12:43:00,
2013-10-05 08:48:00,65.2,64.6,29.99,NNW,346,0.0,0.0,98,0.01,RA,,0.37,14.0,WeatherDisplay:10.37,2013-10-05 12:48:00,
2013-10-05 08:53:00,65.2,64.6,29.98,NNW,346,0.0,0.0,98,0.01,RA,,0.37,18.0,WeatherDisplay:10.37,2013-10-05 12:53:00,
2013-10-05 08:58:00,65.2,64.6,29.97,East,83,3.5,3.5,98,0.01,CLR,,0.37,28.0,WeatherDisplay:10.37,2013-10-05 12:58:00,
2013-10-05 09:03:00,65.3,64.7,29.97,East,83,4.6,4.6,98,0.01,OVC,,0.37,37.0,WeatherDisplay:10.37,2013-10-05 13:03:00,
2013-10-05 09:08:00,65.4,64.8,29.97,East,83,3.0,3.0,98,0.01,OVC,,0.37,46.0,WeatherDisplay:10.37,2013-10-05 13:08:00,
2013-10-05 09:13:00,65.5,64.9,29.96,East,84,3.5,3.5,98,0.01,OVC,,0.37,53.0,WeatherDisplay:10.37,2013-10-05 13:13:00,
2013-10-05 09:18:00,65.6,65.0,29.97,East,84,0.0,0.0,98,0.01,OVC,,0.37,46.0,WeatherDisplay:10.37,2013-10-05 13:18:00,
2013-10-05 09:23:00,65.6,65.0,29.97,North,5,3.5,3.5,98,0.01,OVC,,0.37,40.0,WeatherDisplay:10.37,2013-10-05 13:23:00,
2013-10-05 09:28:00,65.6,65.0,29.97,NNE,22,2.3,2.3,98,0.01,OVC,,0.37,47.0,WeatherDisplay:10.37,2013-10-05 13:28:00,
2013-10-05 09:33:00,65.6,65.0,29.97,NE,40,3.5,3.5,98,0.01,OVC,,0.37,63.0,WeatherDisplay:10.37,2013-10-05 13:33:00,
2013-10-05 09:38:00,65.6,65.0,29.98,NE,40,1.2,1.2,98,0.01,OVC,,0.37,81.0,WeatherDisplay:10.37,2013-10-05 13:38:00,
2013-10-05 09:43:00,65.7,65.1,29.98,NE,40,0.0,0.0,98,0.01,OVC,,0.37,81.0,WeatherDisplay:10.37,2013-10-05 13:43:00,
2013-10-05 09:48:00,65.7,65.1,29.98,NE,40,2.3,2.3,98,0.00,OVC,,0.37,88.0,WeatherDisplay:10.37,2013-10-05 13:48:00,
2013-10-05 09:53:00,65.7,65.1,29.98,NE,40,2.0,2.0,98,0.00,OVC,,0.37,69.0,WeatherDisplay:10.37,2013-10-05 13:53:00,
2013-10-05 09:58:00,65.6,65.0,29.98,NE,46,3.5,3.5,98,0.00,OVC,,0.37,62.0,WeatherDisplay:10.37,2013-10-05 13:58:00,
2013-10-05 10:03:00,65.6,65.0,29.98,NE,47,1.2,1.2,98,0.00,OVC,,0.37,65.0,WeatherDisplay:10.37,2013-10-05 14:03:00,
2013-10-05 10:08:00,65.7,65.1,29.98,NE,47,0.0,0.0,98,0.00,OVC,,0.37,160.0,WeatherDisplay:10.37,2013-10-05 14:08:00,
2013-10-05 10:13:00,65.9,65.3,29.98,NE,47,1.2,1.2,98,0.00,OVC,,0.37,183.0,WeatherDisplay:10.37,2013-10-05 14:13:00,
2013-10-05 10:18:00,66.2,65.6,29.98,NE,47,2.3,2.3,98,0.00,OVC,,0.37,188.0,WeatherDisplay:10.37,2013-10-05 14:18:00,
2013-10-05 10:23:00,66.3,65.7,29.98,NE,47,0.0,0.0,98,0.00,OVC,,0.37,216.0,WeatherDisplay:10.37,2013-10-05 14:23:00,
2013-10-05 10:28:00,66.4,65.8,29.98,NE,47,0.0,0.0,98,0.00,OVC,,0.37,141.0,WeatherDisplay:10.37,2013-10-05 14:28:00,
2013-10-05 10:33:00,66.2,65.6,29.99,NE,49,1.2,1.2,98,0.00,OVC,,0.37,74.0,WeatherDisplay:10.37,2013-10-05 14:33:00,
2013-10-05 10:38:00,66.2,65.6,29.98,ESE,113,2.3,2.3,98,0.00,OVC,,0.37,114.0,WeatherDisplay:10.37,2013-10-05 14:38:00,
2013-10-05 10:43:00,66.3,65.7,29.98,East,82,2.3,2.3,98,0.00,OVC,,0.37,128.0,WeatherDisplay:10.37,2013-10-05 14:43:00,
2013-10-05 10:48:00,66.4,65.8,29.98,East,82,3.5,3.5,98,0.00,OVC,,0.37,237.0,WeatherDisplay:10.37,2013-10-05 14:48:00,
2013-10-05 10:53:00,66.7,66.1,29.98,East,82,5.0,5.0,98,0.00,OVC,,0.37,193.0,WeatherDisplay:10.37,2013-10-05 14:53:00,
2013-10-05 10:58:00,66.8,66.2,29.98,East,88,3.5,3.5,98,0.00,OVC,,0.37,253.0,WeatherDisplay:10.37,2013-10-05 14:58:00,
2013-10-05 11:03:00,67.2,66.6,29.98,ESE,107,3.5,3.5,98,0.00,OVC,,0.37,135.0,WeatherDisplay:10.37,2013-10-05 15:03:00,
2013-10-05 11:08:00,67.5,66.9,29.97,ESE,111,4.0,4.0,98,0.00,OVC,,0.37,336.0,WeatherDisplay:10.37,2013-10-05 15:08:00,
2013-10-05 11:13:00,68.0,67.4,29.97,South,172,3.5,3.5,98,0.00,OVC,,0.37,188.0,WeatherDisplay:10.37,2013-10-05 15:13:00,
2013-10-05 11:18:00,68.0,67.1,29.97,SSE,150,3.5,3.5,97,0.00,OVC,,0.37,213.0,WeatherDisplay:10.37,2013-10-05 15:18:00,
2013-10-05 11:23:00,68.4,67.2,29.97,SSE,157,3.5,3.5,96,0.00,OVC,,0.37,225.0,WeatherDisplay:10.37,2013-10-05 15:23:00,
2013-10-05 11:28:00,68.6,67.1,29.97,ESE,117,3.5,3.5,95,0.00,OVC,,0.37,244.0,WeatherDisplay:10.37,2013-10-05 15:28:00,
2013-10-05 11:33:00,69.1,67.6,29.97,South,169,1.2,1.2,95,0.00,OVC,,0.37,285.0,WeatherDisplay:10.37,2013-10-05 15:33:00,
2013-10-05 11:38:00,69.4,67.3,29.97,SE,128,2.3,2.3,93,0.00,OVC,,0.37,278.0,WeatherDisplay:10.37,2013-10-05 15:38:00,
2013-10-05 11:43:00,69.8,67.7,29.97,SE,141,1.2,1.2,93,0.00,OVC,,0.37,311.0,WeatherDisplay:10.37,2013-10-05 15:43:00,
2013-10-05 11:48:00,69.9,66.8,29.97,SE,127,2.3,2.4,90,0.00,OVC,,0.37,251.0,WeatherDisplay:10.37,2013-10-05 15:48:00,
2013-10-05 11:53:00,69.9,66.8,29.97,East,86,3.5,3.5,90,0.00,OVC,,0.37,211.0,WeatherDisplay:10.37,2013-10-05 15:53:00,
2013-10-05 11:58:00,69.9,66.8,29.98,SE,126,4.6,4.6,90,0.00,OVC,,0.37,144.0,WeatherDisplay:10.37,2013-10-05 15:58:00,
2013-10-05 12:03:00,69.9,66.5,29.97,SE,131,5.8,5.8,89,0.00,OVC,,0.37,116.0,WeatherDisplay:10.37,2013-10-05 16:03:00,
2013-10-05 12:08:00,69.8,66.7,29.97,SSE,159,6.9,6.9,90,0.00,OVC,,0.37,165.0,WeatherDisplay:10.37,2013-10-05 16:08:00,
2013-10-05 12:13:00,69.8,66.7,29.97,SE,142,3.5,3.5,90,0.00,OVC,,0.37,211.0,WeatherDisplay:10.37,2013-10-05 16:13:00,
2013-10-05 12:18:00,69.9,66.8,29.97,SE,127,3.0,3.0,90,0.00,OVC,,0.37,158.0,WeatherDisplay:10.37,2013-10-05 16:18:00,
2013-10-05 12:23:00,69.7,66.3,29.97,ESE,113,3.5,3.5,89,0.00,OVC,,0.37,158.0,WeatherDisplay:10.37,2013-10-05 16:23:00,
2013-10-05 12:28:00,69.7,66.3,29.97,SSE,148,3.5,3.5,89,0.00,OVC,,0.37,155.0,WeatherDisplay:10.37,2013-10-05 16:28:00,
2013-10-05 12:33:00,69.7,66.3,29.97,SSE,159,2.3,2.3,89,0.00,OVC,,0.37,128.0,WeatherDisplay:10.37,2013-10-05 16:33:00,
2013-10-05 12:38:00,69.7,66.3,29.97,SE,133,3.5,3.5,89,0.00,OVC,,0.37,118.0,WeatherDisplay:10.37,2013-10-05 16:38:00,
2013-10-05 12:43:00,69.5,66.1,29.97,SE,128,7.0,7.0,89,0.00,CLR,,0.37,98.0,WeatherDisplay:10.37,2013-10-05 16:43:00,
2013-10-05 12:48:00,69.4,66.0,29.97,SE,136,3.5,3.5,89,0.00,CLR,,0.37,83.0,WeatherDisplay:10.37,2013-10-05 16:48:00,
2013-10-05 12:53:00,69.3,66.2,29.97,SSE,167,3.5,3.5,90,0.00,CLR,,0.37,74.0,WeatherDisplay:10.37,2013-10-05 16:53:00,
2013-10-05 12:58:00,69.0,65.9,29.97,SSE,159,6.9,6.9,90,0.00,CLR,,0.37,83.0,WeatherDisplay:10.37,2013-10-05 16:58:00,
2013-10-05 13:03:00,68.9,65.8,29.97,SSE,159,4.6,4.6,90,0.00,CLR,,0.37,69.0,WeatherDisplay:10.37,2013-10-05 17:03:00,
2013-10-05 13:08:00,68.6,65.5,29.97,SSE,161,4.6,4.6,90,0.00,CLR,,0.37,81.0,WeatherDisplay:10.37,2013-10-05 17:08:00,
2013-10-05 13:13:00,68.6,65.9,29.97,ESE,113,5.8,5.8,91,0.00,CLR,,0.37,165.0,WeatherDisplay:10.37,2013-10-05 17:13:00,
2013-10-05 13:18:00,68.7,66.0,29.96,SSE,148,6.9,6.9,91,0.00,CLR,,0.37,174.0,WeatherDisplay:10.37,2013-10-05 17:18:00,
2013-10-05 13:23:00,68.9,66.5,29.96,ESE,109,5.0,5.0,92,0.00,CLR,,0.37,257.0,WeatherDisplay:10.37,2013-10-05 17:23:00,
2013-10-05 13:28:00,69.2,66.5,29.96,SE,143,3.5,3.5,91,0.00,CLR,,0.37,206.0,WeatherDisplay:10.37,2013-10-05 17:28:00,
2013-10-05 13:33:00,69.4,66.3,29.96,SE,144,1.2,0.0,90,0.00,CLR,,0.37,167.0,WeatherDisplay:10.37,2013-10-05 17:33:00,
2013-10-05 13:38:00,69.6,66.5,29.96,ENE,76,3.5,3.5,90,0.00,CLR,,0.37,193.0,WeatherDisplay:10.37,2013-10-05 17:38:00,
2013-10-05 13:43:00,69.8,66.7,29.96,SSE,161,2.3,2.3,90,0.00,CLR,,0.37,155.0,WeatherDisplay:10.37,2013-10-05 17:43:00,
2013-10-05 13:48:00,69.9,66.8,29.95,SSE,150,2.3,2.3,90,0.00,CLR,,0.37,146.0,WeatherDisplay:10.37,2013-10-05 17:48:00,
2013-10-05 13:53:00,70.1,67.3,29.95,East,86,4.6,4.6,91,0.00,CLR,,0.37,350.0,WeatherDisplay:10.37,2013-10-05 17:53:00,
2013-10-05 13:58:00,70.3,66.9,29.94,ESE,112,4.0,4.0,89,0.00,CLR,,0.37,272.0,WeatherDisplay:10.37,2013-10-05 17:58:00,
2013-10-05 14:03:00,70.6,67.8,29.94,SE,130,3.5,3.5,91,0.00,CLR,,0.37,276.0,WeatherDisplay:10.37,2013-10-05 18:03:00,
2013-10-05 14:08:00,71.0,67.9,29.94,SSE,147,4.0,4.0,90,0.00,CLR,,0.37,246.0,WeatherDisplay:10.37,2013-10-05 18:08:00,
2013-10-05 14:13:00,71.1,67.4,29.94,East,99,6.9,6.9,88,0.00,CLR,,0.37,234.0,WeatherDisplay:10.37,2013-10-05 18:13:00,
2013-10-05 14:18:00,71.0,67.3,29.94,ESE,107,2.0,2.0,88,0.00,CLR,,0.37,213.0,WeatherDisplay:10.37,2013-10-05 18:18:00,
2013-10-05 14:23:00,70.9,67.2,29.94,East,87,4.6,4.6,88,0.00,SCT,,0.37,141.0,WeatherDisplay:10.37,2013-10-05 18:23:00,
2013-10-05 14:28:00,70.9,67.8,29.93,East,98,2.3,2.3,90,0.00,SCT,,0.37,192.0,WeatherDisplay:10.37,2013-10-05 18:28:00,
2013-10-05 14:33:00,71.0,67.9,29.93,East,96,3.0,3.0,90,0.00,SCT,,0.37,188.0,WeatherDisplay:10.37,2013-10-05 18:33:00,
2013-10-05 14:38:00,71.1,68.0,29.93,SE,135,3.0,3.0,90,0.00,SCT,,0.37,190.0,WeatherDisplay:10.37,2013-10-05 18:38:00,
2013-10-05 14:43:00,71.2,67.8,29.93,SE,129,3.5,3.5,89,0.00,BKN,,0.37,139.0,WeatherDisplay:10.37,2013-10-05 18:43:00,
2013-10-05 14:48:00,71.1,67.4,29.93,East,84,4.6,4.6,88,0.00,BKN,,0.37,118.0,WeatherDisplay:10.37,2013-10-05 18:48:00,
2013-10-05 14:53:00,71.0,67.6,29.93,SE,134,3.5,3.5,89,0.00,BKN,,0.37,76.0,WeatherDisplay:10.37,2013-10-05 18:53:00,
2013-10-05 14:58:00,70.9,67.5,29.93,SE,133,3.5,3.5,89,0.00,BKN,,0.37,70.0,WeatherDisplay:10.37,2013-10-05 18:58:00,
2013-10-05 15:03:00,70.9,67.8,29.93,SE,132,2.0,2.0,90,0.00,BKN,,0.37,109.0,WeatherDisplay:10.37,2013-10-05 19:03:00,
2013-10-05 15:08:00,70.9,67.8,29.92,ESE,115,3.5,3.5,90,0.00,BKN,,0.37,90.0,WeatherDisplay:10.37,2013-10-05 19:08:00,
2013-10-05 15:13:00,71.0,67.9,29.92,SE,128,2.3,2.3,90,0.00,BKN,,0.37,86.0,WeatherDisplay:10.37,2013-10-05 19:13:00,
2013-10-05 15:18:00,71.1,68.0,29.92,SE,128,1.2,1.2,90,0.00,BKN,,0.37,111.0,WeatherDisplay:10.37,2013-10-05 19:18:00,
2013-10-05 15:23:00,71.2,68.1,29.92,SE,128,2.3,2.3,90,0.00,BKN,,0.37,127.0,WeatherDisplay:10.37,2013-10-05 19:23:00,
2013-10-05 15:28:00,71.3,68.2,29.92,SE,128,2.3,2.3,90,0.00,BKN,,0.37,118.0,WeatherDisplay:10.37,2013-10-05 19:28:00,
2013-10-05 15:33:00,71.5,68.1,29.92,SSE,156,2.3,2.3,89,0.00,BKN,,0.37,93.0,WeatherDisplay:10.37,2013-10-05 19:33:00,
2013-10-05 15:38:00,71.6,68.5,29.91,SSE,156,1.2,1.2,90,0.00,BKN,,0.37,93.0,WeatherDisplay:10.37,2013-10-05 19:38:00,
2013-10-05 15:43:00,71.7,68.3,29.91,SSE,156,2.3,2.3,89,0.00,BKN,,0.37,142.0,WeatherDisplay:10.37,2013-10-05 19:43:00,
2013-10-05 15:48:00,71.8,68.7,29.91,SSE,153,2.0,2.0,90,0.00,BKN,,0.37,130.0,WeatherDisplay:10.37,2013-10-05 19:48:00,
2013-10-05 15:53:00,72.0,68.6,29.91,SE,146,2.3,2.3,89,0.00,BKN,,0.37,118.0,WeatherDisplay:10.37,2013-10-05 19:53:00,
2013-10-05 15:58:00,72.2,68.8,29.90,South,179,3.5,3.5,89,0.00,BKN,,0.37,98.0,WeatherDisplay:10.37,2013-10-05 19:58:00,
2013-10-05 16:03:00,72.4,69.0,29.90,SSE,164,1.2,1.2,89,0.00,BKN,,0.37,155.0,WeatherDisplay:10.37,2013-10-05 20:03:00,
2013-10-05 16:08:00,72.6,69.2,29.90,SE,135,3.0,3.0,89,0.00,BKN,,0.37,114.0,WeatherDisplay:10.37,2013-10-05 20:08:00,
2013-10-05 16:13:00,72.6,68.8,29.89,SE,124,3.5,3.5,88,0.00,BKN,,0.37,97.0,WeatherDisplay:10.37,2013-10-05 20:13:00,
2013-10-05 16:18:00,72.6,68.8,29.89,ESE,123,2.3,2.3,88,0.00,BKN,,0.37,70.0,WeatherDisplay:10.37,2013-10-05 20:18:00,
2013-10-05 16:23:00,72.6,68.5,29.89,SSE,164,3.5,3.5,87,0.00,BKN,,0.37,67.0,WeatherDisplay:10.37,2013-10-05 20:23:00,
2013-10-05 16:28:00,72.5,68.4,29.88,South,191,5.8,5.8,87,0.00,BKN,,0.37,93.0,WeatherDisplay:10.37,2013-10-05 20:28:00,
2013-10-05 16:33:00,72.5,68.4,29.88,SE,134,3.5,3.5,87,0.00,BKN,,0.37,144.0,WeatherDisplay:10.37,2013-10-05 20:33:00,
2013-10-05 16:38:00,72.6,68.8,29.89,SSE,151,2.3,2.3,88,0.00,BKN,,0.37,127.0,WeatherDisplay:10.37,2013-10-05 20:38:00,
2013-10-05 16:43:00,72.6,68.8,29.89,South,171,3.5,3.5,88,0.00,BKN,,0.37,69.0,WeatherDisplay:10.37,2013-10-05 20:43:00,
2013-10-05 16:48:00,72.6,68.8,29.89,SSW,208,4.6,4.6,88,0.00,BKN,,0.37,76.0,WeatherDisplay:10.37,2013-10-05 20:48:00,
2013-10-05 16:53:00,72.6,68.5,29.89,South,177,8.1,8.1,87,0.00,BKN,,0.37,49.0,WeatherDisplay:10.37,2013-10-05 20:53:00,
2013-10-05 16:58:00,72.5,68.4,29.89,South,182,5.8,5.8,87,0.00,BKN,,0.37,40.0,WeatherDisplay:10.37,2013-10-05 20:58:00,
2013-10-05 17:03:00,72.4,68.3,29.89,SE,138,8.1,8.1,87,0.00,OVC,,0.37,35.0,WeatherDisplay:10.37,2013-10-05 21:03:00,
2013-10-05 17:08:00,72.2,68.1,29.88,South,169,6.0,6.0,87,0.00,OVC,,0.37,39.0,WeatherDisplay:10.37,2013-10-05 21:08:00,
2013-10-05 17:13:00,72.1,68.0,29.89,South,172,5.0,5.0,87,0.00,BKN,,0.37,40.0,WeatherDisplay:10.37,2013-10-05 21:13:00,
2013-10-05 17:18:00,72.1,68.3,29.88,SSE,166,4.0,4.0,88,0.00,BKN,,0.37,46.0,WeatherDisplay:10.37,2013-10-05 21:18:00,
2013-10-05 17:24:00,72.0,68.2,29.88,South,171,3.5,3.5,88,0.00,BKN,,0.37,42.0,WeatherDisplay:10.37,2013-10-05 21:24:00,
2013-10-05 17:29:00,71.9,68.2,29.89,South,187,5.0,5.0,88,0.00,BKN,,0.37,54.0,WeatherDisplay:10.37,2013-10-05 21:29:00,
2013-10-05 17:34:00,71.9,68.5,29.89,South,184,5.8,5.8,89,0.00,BKN,,0.37,51.0,WeatherDisplay:10.37,2013-10-05 21:34:00,
2013-10-05 17:39:00,71.8,68.4,29.89,South,172,8.1,8.1,89,0.00,BKN,,0.37,42.0,WeatherDisplay:10.37,2013-10-05 21:39:00,
2013-10-05 17:44:00,71.7,68.3,29.89,South,187,6.9,6.9,89,0.00,BKN,,0.37,51.0,WeatherDisplay:10.37,2013-10-05 21:44:00,
2013-10-05 17:49:00,71.6,68.5,29.88,SSE,161,4.6,4.6,90,0.00,BKN,,0.37,91.0,WeatherDisplay:10.37,2013-10-05 21:49:00,
2013-10-05 17:54:00,71.7,68.6,29.88,SSE,159,4.6,4.6,90,0.00,BKN,,0.37,114.0,WeatherDisplay:10.37,2013-10-05 21:54:00,
2013-10-05 17:59:00,71.6,68.5,29.88,SSE,159,6.9,6.9,90,0.00,BKN,,0.37,60.0,WeatherDisplay:10.37,2013-10-05 21:59:00,
2013-10-05 18:04:00,71.4,68.3,29.88,SE,126,3.5,3.5,90,0.00,BKN,,0.37,47.0,WeatherDisplay:10.37,2013-10-05 22:04:00,
2013-10-05 18:09:00,71.2,68.4,29.88,SE,146,3.5,3.5,91,0.00,BKN,,0.37,44.0,WeatherDisplay:10.37,2013-10-05 22:09:00,
2013-10-05 18:14:00,71.0,68.2,29.88,SE,136,2.3,2.3,91,0.00,BKN,,0.37,44.0,WeatherDisplay:10.37,2013-10-05 22:14:00,
2013-10-05 18:19:00,70.8,68.0,29.88,SSE,167,4.6,4.6,91,0.00,BKN,,0.37,51.0,WeatherDisplay:10.37,2013-10-05 22:19:00,
2013-10-05 18:24:00,70.7,68.3,29.88,SSE,152,3.5,3.5,92,0.00,BKN,,0.37,40.0,WeatherDisplay:10.37,2013-10-05 22:24:00,
2013-10-05 18:29:00,70.5,68.1,29.88,South,171,6.0,6.0,92,0.00,CLR,,0.37,32.0,WeatherDisplay:10.37,2013-10-05 22:29:00,
2013-10-05 18:34:00,70.5,68.1,29.87,SSE,166,2.3,2.3,92,0.00,CLR,,0.37,26.0,WeatherDisplay:10.37,2013-10-05 22:34:00,
2013-10-05 18:39:00,70.3,67.9,29.88,SSE,164,3.5,3.5,92,0.00,CLR,,0.37,18.0,WeatherDisplay:10.37,2013-10-05 22:39:00,
2013-10-05 18:44:00,70.3,67.9,29.88,South,178,3.5,3.5,92,0.00,CLR,,0.37,11.0,WeatherDisplay:10.37,2013-10-05 22:44:00,
2013-10-05 18:49:00,70.1,67.7,29.88,SSE,161,2.3,2.3,92,0.00,CLR,,0.37,9.0,WeatherDisplay:10.37,2013-10-05 22:49:00,
2013-10-05 18:54:00,69.9,67.8,29.88,SSE,155,1.2,1.2,93,0.00,CLR,,0.37,7.0,WeatherDisplay:10.37,2013-10-05 22:54:00,
2013-10-05 18:59:00,69.8,67.7,29.88,SSE,167,3.0,3.0,93,0.00,CLR,,0.37,0.0,WeatherDisplay:10.37,2013-10-05 22:59:00,
2013-10-05 19:04:00,69.7,67.6,29.88,SE,146,5.0,5.0,93,0.00,CLR,,0.37,0.0,WeatherDisplay:10.37,2013-10-05 23:04:00,
2013-10-05 19:09:00,69.6,67.8,29.88,South,173,4.6,4.6,94,0.00,CLR,,0.37,0.0,WeatherDisplay:10.37,2013-10-05 23:09:00,
2013-10-05 19:14:00,69.5,67.7,29.88,SSE,165,3.5,3.5,94,0.00,CLR,,0.37,0.0,WeatherDisplay:10.37,2013-10-05 23:14:00,
2013-10-05 19:19:00,69.5,67.7,29.88,SSE,160,4.0,4.0,94,0.00,CLR,,0.37,0.0,WeatherDisplay:10.37,2013-10-05 23:19:00,
2013-10-05 19:24:00,69.4,67.6,29.88,SSE,160,1.2,1.2,94,0.00,CLR,,0.37,0.0,WeatherDisplay:10.37,2013-10-05 23:24:00,
2013-10-05 19:29:00,69.3,67.5,29.88,SSE,153,1.2,1.2,94,0.00,CLR,,0.37,0.0,WeatherDisplay:10.37,2013-10-05 23:29:00,
2013-10-05 19:34:00,69.3,67.5,29.88,SSE,161,4.0,4.0,94,0.00,CLR,,0.37,0.0,WeatherDisplay:10.37,2013-10-05 23:34:00,
2013-10-05 19:39:00,69.2,67.4,29.88,SSE,147,2.3,2.3,94,0.00,CLR,,0.37,0.0,WeatherDisplay:10.37,2013-10-05 23:39:00,
2013-10-05 19:44:00,69.2,67.4,29.88,SSE,160,0.0,0.1,94,0.00,CLR,,0.37,0.0,WeatherDisplay:10.37,2013-10-05 23:44:00,
2013-10-05 19:49:00,69.1,67.6,29.88,South,178,3.5,3.5,95,0.00,CLR,,0.37,0.0,WeatherDisplay:10.37,2013-10-05 23:49:00,
2013-10-05 19:54:00,69.1,67.6,29.87,South,171,3.5,3.5,95,0.00,CLR,,0.37,0.0,WeatherDisplay:10.37,2013-10-05 23:54:00,
2013-10-05 19:59:00,69.1,67.6,29.88,South,171,0.0,0.3,95,0.00,CLR,,0.37,0.0,WeatherDisplay:10.37,2013-10-05 23:59:00,
2013-10-05 20:04:00,69.0,67.5,29.87,South,170,3.0,3.0,95,0.00,CLR,,0.37,0.0,WeatherDisplay:10.37,2013-10-06 00:04:00,
2013-10-05 20:09:00,69.0,67.5,29.87,SE,143,4.6,4.6,95,0.00,CLR,,0.37,0.0,WeatherDisplay:10.37,2013-10-06 00:09:00,
2013-10-05 20:14:00,69.0,67.5,29.87,SSE,157,3.5,3.5,95,0.00,CLR,,0.37,0.0,WeatherDisplay:10.37,2013-10-06 00:14:00,
2013-10-05 20:19:00,68.9,67.1,29.87,SSE,154,4.0,4.0,94,0.00,CLR,,0.37,0.0,WeatherDisplay:10.37,2013-10-06 00:19:00,
2013-10-05 20:24:00,68.9,67.1,29.87,SSE,162,4.0,4.0,94,0.00,CLR,,0.37,0.0,WeatherDisplay:10.37,2013-10-06 00:24:00,
2013-10-05 20:29:00,68.8,67.0,29.88,SSE,149,3.5,3.5,94,0.00,CLR,,0.37,0.0,WeatherDisplay:10.37,2013-10-06 00:29:00,
2013-10-05 20:34:00,68.8,67.0,29.88,SSE,148,2.3,2.3,94,0.00,CLR,,0.37,0.0,WeatherDisplay:10.37,2013-10-06 00:34:00,
2013-10-05 20:39:00,68.8,67.0,29.88,SSE,157,3.5,3.5,94,0.00,CLR,,0.37,0.0,WeatherDisplay:10.37,2013-10-06 00:39:00,
2013-10-05 20:44:00,68.8,67.0,29.88,SSE,161,3.5,3.5,94,0.00,CLR,,0.37,0.0,WeatherDisplay:10.37,2013-10-06 00:44:00,
2013-10-05 20:49:00,68.8,66.7,29.87,SSE,166,4.6,4.6,93,0.00,CLR,,0.37,0.0,WeatherDisplay:10.37,2013-10-06 00:49:00,
2013-10-05 20:54:00,68.8,66.7,29.87,East,101,5.8,5.8,93,0.00,CLR,,0.37,0.0,WeatherDisplay:10.37,2013-10-06 00:54:00,
2013-10-05 20:59:00,68.7,66.6,29.88,SSE,165,4.6,4.6,93,0.00,CLR,,0.37,0.0,WeatherDisplay:10.37,2013-10-06 00:59:00,
2013-10-05 21:04:00,68.6,66.5,29.88,SSE,149,5.8,5.8,93,0.00,CLR,,0.37,0.0,WeatherDisplay:10.37,2013-10-06 01:04:00,
2013-10-05 21:09:00,68.6,66.2,29.88,SE,144,3.5,3.5,92,0.00,CLR,,0.37,0.0,WeatherDisplay:10.37,2013-10-06 01:09:00,
2013-10-05 21:14:00,68.6,66.2,29.88,SSE,152,1.2,1.2,92,0.00,CLR,,0.37,0.0,WeatherDisplay:10.37,2013-10-06 01:14:00,
2013-10-05 21:19:00,68.5,66.1,29.88,ESE,118,4.6,4.6,92,0.00,CLR,,0.37,0.0,WeatherDisplay:10.37,2013-10-06 01:19:00,
2013-10-05 21:24:00,68.5,66.1,29.88,SE,126,4.6,4.6,92,0.00,CLR,,0.37,0.0,WeatherDisplay:10.37,2013-10-06 01:24:00,
2013-10-05 21:29:00,68.5,66.1,29.88,SE,144,6.0,6.0,92,0.00,CLR,,0.37,0.0,WeatherDisplay:10.37,2013-10-06 01:29:00,
2013-10-05 21:34:00,68.4,66.0,29.87,ESE,108,6.9,6.9,92,0.00,CLR,,0.37,0.0,WeatherDisplay:10.37,2013-10-06 01:34:00,
2013-10-05 21:39:00,68.4,66.0,29.87,SSE,157,3.0,3.0,92,0.00,CLR,,0.37,0.0,WeatherDisplay:10.37,2013-10-06 01:39:00,
2013-10-05 21:44:00,68.3,65.9,29.87,SE,138,5.8,5.8,92,0.00,CLR,,0.37,0.0,WeatherDisplay:10.37,2013-10-06 01:44:00,
2013-10-05 21:49:00,68.3,65.9,29.87,ESE,117,5.8,5.8,92,0.00,CLR,,0.37,0.0,WeatherDisplay:10.37,2013-10-06 01:49:00,
2013-10-05 21:54:00,68.2,65.8,29.87,SE,134,9.2,9.2,92,0.00,CLR,,0.37,0.0,WeatherDisplay:10.37,2013-10-06 01:54:00,
2013-10-05 21:59:00,68.1,66.0,29.87,SSE,159,4.0,4.0,93,0.00,CLR,,0.37,0.0,WeatherDisplay:10.37,2013-10-06 01:59:00,
2013-10-05 22:04:00,68.0,65.9,29.87,SSE,163,3.5,3.5,93,0.00,CLR,,0.37,0.0,WeatherDisplay:10.37,2013-10-06 02:04:00,
2013-10-05 22:09:00,67.9,65.8,29.87,SE,126,2.3,4.0,93,0.00,CLR,,0.37,0.0,WeatherDisplay:10.37,2013-10-06 02:09:00,
2013-10-05 22:14:00,67.9,65.8,29.87,SSE,155,4.6,4.6,93,0.00,CLR,,0.37,0.0,WeatherDisplay:10.37,2013-10-06 02:14:00,
2013-10-05 22:19:00,67.8,65.7,29.87,SE,140,5.8,5.8,93,0.00,CLR,,0.37,0.0,WeatherDisplay:10.37,2013-10-06 02:19:00,
2013-10-05 22:24:00,67.8,66.0,29.86,South,190,3.5,3.5,94,0.00,CLR,,0.37,0.0,WeatherDisplay:10.37,2013-10-06 02:24:00,
2013-10-05 22:29:00,67.8,66.0,29.86,SSE,151,8.1,8.1,94,0.00,CLR,,0.37,0.0,WeatherDisplay:10.37,2013-10-06 02:29:00,
2013-10-05 22:34:00,67.8,66.0,29.86,SSE,165,6.9,6.9,94,0.00,CLR,,0.37,0.0,WeatherDisplay:10.37,2013-10-06 02:34:00,
2013-10-05 22:39:00,67.7,65.9,29.86,South,170,6.0,6.0,94,0.00,CLR,,0.37,0.0,WeatherDisplay:10.37,2013-10-06 02:39:00,
2013-10-05 22:44:00,67.7,66.2,29.86,SSE,159,8.1,8.1,95,0.00,CLR,,0.37,0.0,WeatherDisplay:10.37,2013-10-06 02:44:00,
2013-10-05 22:49:00,67.6,66.1,29.85,SSE,161,3.5,3.5,95,0.00,CLR,,0.37,0.0,WeatherDisplay:10.37,2013-10-06 02:49:00,
2013-10-05 22:54:00,67.6,66.1,29.85,ESE,123,3.5,3.5,95,0.00,CLR,,0.37,0.0,WeatherDisplay:10.37,2013-10-06 02:54:00,
2013-10-05 22:59:00,67.6,66.1,29.85,SSE,153,4.6,4.6,95,0.00,CLR,,0.37,0.0,WeatherDisplay:10.37,2013-10-06 02:59:00,
2013-10-05 23:04:00,67.5,66.0,29.84,SE,139,4.6,4.6,95,0.00,CLR,,0.37,0.0,WeatherDisplay:10.37,2013-10-06 03:04:00,
2013-10-05 23:09:00,67.5,66.0,29.84,SE,139,3.5,3.5,95,0.00,CLR,,0.37,0.0,WeatherDisplay:10.37,2013-10-06 03:09:00,
2013-10-05 23:14:00,67.5,66.0,29.84,East,96,6.9,6.9,95,0.00,CLR,,0.37,0.0,WeatherDisplay:10.37,2013-10-06 03:14:00,
2013-10-05 23:19:00,67.5,66.0,29.84,SSE,157,7.0,7.0,95,0.00,CLR,,0.37,0.0,WeatherDisplay:10.37,2013-10-06 03:19:00,
2013-10-05 23:24:00,67.4,65.9,29.83,SSE,163,6.9,6.9,95,0.00,CLR,,0.37,0.0,WeatherDisplay:10.37,2013-10-06 03:24:00,
2013-10-05 23:29:00,67.4,65.9,29.83,SSE,165,3.5,3.5,95,0.00,CLR,,0.37,0.0,WeatherDisplay:10.37,2013-10-06 03:29:00,
2013-10-05 23:34:00,67.4,66.2,29.82,South,174,6.9,6.9,96,0.00,CLR,,0.37,0.0,WeatherDisplay:10.37,2013-10-06 03:34:00,
2013-10-05 23:39:00,67.5,66.3,29.82,SSE,163,11.5,11.5,96,0.00,CLR,,0.37,0.0,WeatherDisplay:10.37,2013-10-06 03:39:00,
2013-10-05 23:44:00,67.6,66.4,29.82,SSE,147,11.5,11.5,96,0.00,CLR,,0.37,0.0,WeatherDisplay:10.37,2013-10-06 03:44:00,
2013-10-05 23:49:00,67.6,66.4,29.82,SSE,157,4.6,4.6,96,0.00,CLR,,0.37,0.0,WeatherDisplay:10.37,2013-10-06 03:49:00,
2013-10-05 23:54:00,67.6,66.4,29.82,SE,127,8.1,8.1,96,0.00,CLR,,0.37,0.0,WeatherDisplay:10.37,2013-10-06 03:54:00,
2013-10-05 23:59:00,67.7,66.5,29.82,SSE,165,4.6,4.6,96,0.00,CLR,,0.37,0.0,WeatherDisplay:10.37,2013-10-06 03:59:00,